createdAt,value
2023-04-22T00:01:28.889Z,10.72
2023-04-22T00:04:31.745Z,10.76
2023-04-22T00:07:34.082Z,10.79
2023-04-22T00:10:36.557Z,10.76
2023-04-22T00:13:38.786Z,10.71
2023-04-22T00:16:41.352Z,10.66
2023-04-22T00:19:43.858Z,10.56
2023-04-22T00:22:46.252Z,10.57
2023-04-22T00:25:48.462Z,10.55
2023-04-22T00:28:50.917Z,10.50
2023-04-22T00:31:53.117Z,10.38
2023-04-22T00:34:57.303Z,10.35
2023-04-22T00:37:59.539Z,10.33
2023-04-22T00:41:02.910Z,10.36
2023-04-22T00:44:08.705Z,10.32
2023-04-22T00:47:12.318Z,10.36
2023-04-22T00:50:15.661Z,10.40
2023-04-22T00:53:18.156Z,10.42
2023-04-22T00:56:21.996Z,10.39
2023-04-22T00:59:26.026Z,10.45
2023-04-22T01:02:29.274Z,10.40
2023-04-22T01:05:34.540Z,10.34
2023-04-22T01:08:36.912Z,10.34
2023-04-22T01:11:39.423Z,10.26
2023-04-22T01:14:42.050Z,10.21
2023-04-22T01:17:45.709Z,10.17
2023-04-22T01:20:47.897Z,10.14
2023-04-22T01:23:53.339Z,10.01
2023-04-22T01:26:55.701Z,9.92
2023-04-22T01:29:58.456Z,9.88
2023-04-22T01:33:00.843Z,9.76
2023-04-22T01:36:03.565Z,9.73
2023-04-22T01:39:06.090Z,9.60
2023-04-22T01:42:08.679Z,9.45
2023-04-22T01:45:13.072Z,9.43
2023-04-22T01:48:15.609Z,9.42
2023-04-22T01:51:23.482Z,9.37
2023-04-22T01:54:26.047Z,9.37
2023-04-22T01:57:28.196Z,9.23
2023-04-22T02:00:30.988Z,9.29
2023-04-22T02:03:33.541Z,9.31
2023-04-22T02:06:35.815Z,9.36
2023-04-22T02:09:39.144Z,9.34
2023-04-22T02:12:42.097Z,9.40
2023-04-22T02:15:44.727Z,9.40
2023-04-22T02:18:47.300Z,9.37
2023-04-22T02:21:49.535Z,9.36
2023-04-22T02:24:51.982Z,9.37
2023-04-22T02:27:54.181Z,9.38
2023-04-22T02:30:56.842Z,9.31
2023-04-22T02:33:59.048Z,9.31
2023-04-22T02:37:01.572Z,9.15
2023-04-22T02:40:05.047Z,9.08
2023-04-22T02:43:07.585Z,9.00
2023-04-22T02:46:12.961Z,8.91
2023-04-22T02:49:15.808Z,8.88
2023-04-22T02:52:17.953Z,8.85
2023-04-22T02:55:21.871Z,8.92
2023-04-22T02:58:26.166Z,8.91
2023-04-22T03:01:28.703Z,8.90
2023-04-22T03:04:32.492Z,9.02
2023-04-22T03:07:35.011Z,8.95
2023-04-22T03:10:37.405Z,8.88
2023-04-22T03:13:39.820Z,8.93
2023-04-22T03:16:42.796Z,8.94
2023-04-22T03:19:45.262Z,8.98
2023-04-22T03:22:49.098Z,8.95
2023-04-22T03:25:51.951Z,9.00
2023-04-22T03:28:54.319Z,8.87
2023-04-22T03:31:56.888Z,8.92
2023-04-22T03:34:59.172Z,8.86
2023-04-22T03:38:01.897Z,8.79
2023-04-22T03:41:04.706Z,8.74
2023-04-22T03:44:09.335Z,8.77
2023-04-22T03:47:12.420Z,8.69
2023-04-22T03:50:16.093Z,8.67
2023-04-22T03:53:18.562Z,8.63
2023-04-22T03:56:21.213Z,8.67
2023-04-22T03:59:24.525Z,8.71
2023-04-22T04:02:27.610Z,8.75
2023-04-22T04:05:31.760Z,8.79
2023-04-22T04:08:34.239Z,8.77
2023-04-22T04:11:36.676Z,8.74
2023-04-22T04:14:39.226Z,8.76
2023-04-22T04:17:42.258Z,8.73
2023-04-22T04:20:44.463Z,8.73
2023-04-22T04:23:47.833Z,8.72
2023-04-22T04:26:51.135Z,8.68
2023-04-22T04:29:55.868Z,8.71
2023-04-22T04:33:06.738Z,8.64
2023-04-22T04:36:10.673Z,8.64
2023-04-22T04:39:13.217Z,8.64
2023-04-22T04:42:15.847Z,8.72
2023-04-22T04:45:19.874Z,8.66
2023-04-22T04:48:25.051Z,8.71
2023-04-22T04:51:27.711Z,8.72
2023-04-22T04:54:30.613Z,8.77
2023-04-22T04:57:35.292Z,8.75
2023-04-22T05:00:39.356Z,8.80
2023-04-22T05:03:41.945Z,8.82
2023-04-22T05:06:44.528Z,8.85
2023-04-22T05:09:48.355Z,8.91
2023-04-22T05:12:51.536Z,8.94
2023-04-22T05:15:54.760Z,8.91
2023-04-22T05:18:57.952Z,8.92
2023-04-22T05:22:00.167Z,8.99
2023-04-22T05:25:06.139Z,9.01
2023-04-22T05:28:08.529Z,9.02
2023-04-22T05:31:11.913Z,9.03
2023-04-22T05:34:14.173Z,9.04
2023-04-22T05:37:16.751Z,9.07
2023-04-22T05:40:19.359Z,9.14
2023-04-22T05:43:22.186Z,9.24
2023-04-22T05:46:26.108Z,9.26
2023-04-22T05:49:29.526Z,9.33
2023-04-22T05:52:33.536Z,9.43
2023-04-22T05:55:36.362Z,9.54
2023-04-22T05:58:39.110Z,9.63
2023-04-22T06:01:42.016Z,9.70
2023-04-22T06:04:45.812Z,9.80
2023-04-22T06:07:48.892Z,9.93
2023-04-22T06:10:51.406Z,10.05
2023-04-22T06:13:53.723Z,10.17
2023-04-22T06:16:56.474Z,10.31
2023-04-22T06:19:58.720Z,10.45
2023-04-22T06:23:01.375Z,10.58
2023-04-22T06:26:03.733Z,10.71
2023-04-22T06:29:06.570Z,10.82
2023-04-22T06:32:09.365Z,10.95
2023-04-22T06:35:11.881Z,11.03
2023-04-22T06:38:14.075Z,11.13
2023-04-22T06:41:17.865Z,11.18
2023-04-22T06:44:20.497Z,11.24
2023-04-22T06:47:23.735Z,11.28
2023-04-22T06:50:26.950Z,11.36
2023-04-22T06:53:30.238Z,11.48
2023-04-22T06:56:32.425Z,11.60
2023-04-22T06:59:34.953Z,11.74
2023-04-22T07:02:37.130Z,11.87
2023-04-22T07:05:40.152Z,12.00
2023-04-22T07:08:43.902Z,12.16
2023-04-22T07:11:46.424Z,12.34
2023-04-22T07:14:49.313Z,12.54
2023-04-22T07:17:51.832Z,12.72
2023-04-22T07:20:54.171Z,12.87
2023-04-22T07:23:56.619Z,13.05
2023-04-22T07:26:58.779Z,13.22
2023-04-22T07:30:01.162Z,13.38
2023-04-22T07:33:03.449Z,13.66
2023-04-22T07:36:06.636Z,14.06
2023-04-22T07:39:09.621Z,14.64
2023-04-22T07:42:12.797Z,15.02
2023-04-22T07:45:14.991Z,15.45
2023-04-22T07:48:17.569Z,16.04
2023-04-22T07:51:19.731Z,16.51
2023-04-22T07:54:22.176Z,16.91
2023-04-22T07:57:24.682Z,17.47
2023-04-22T08:00:27.124Z,17.83
2023-04-22T08:03:29.835Z,18.05
2023-04-22T08:06:32.508Z,18.45
2023-04-22T08:09:34.914Z,18.55
2023-04-22T08:12:37.247Z,18.90
2023-04-22T08:15:40.114Z,19.35
2023-04-22T08:18:42.335Z,19.81
2023-04-22T08:21:44.965Z,20.14
2023-04-22T08:24:47.145Z,20.62
2023-04-22T08:27:51.415Z,20.87
2023-04-22T08:30:53.578Z,21.21
2023-04-22T08:33:56.156Z,21.34
2023-04-22T08:36:58.572Z,21.62
2023-04-22T08:40:01.511Z,21.78
2023-04-22T08:43:04.047Z,22.12
2023-04-22T08:46:06.675Z,22.49
2023-04-22T08:49:09.265Z,22.65
2023-04-22T08:52:12.786Z,22.65
2023-04-22T08:55:15.015Z,22.68
2023-04-22T08:58:17.550Z,23.06
2023-04-22T09:01:21.529Z,23.05
2023-04-22T09:04:24.967Z,23.19
2023-04-22T09:07:29.877Z,23.33
2023-04-22T09:10:34.128Z,23.28
2023-04-22T09:13:37.738Z,23.20
2023-04-22T09:16:42.975Z,23.33
2023-04-22T09:19:45.858Z,23.37
2023-04-22T09:22:49.623Z,23.60
2023-04-22T09:25:51.914Z,23.54
2023-04-22T09:28:54.230Z,23.76
2023-04-22T09:31:56.531Z,23.55
2023-04-22T09:34:59.047Z,23.63
2023-04-22T09:38:03.623Z,23.70
2023-04-22T09:41:12.254Z,23.73
2023-04-22T09:44:16.429Z,23.57
2023-04-22T09:47:20.577Z,23.42
2023-04-22T09:50:28.354Z,23.48
2023-04-22T09:53:37.039Z,23.31
2023-04-22T09:56:52.273Z,23.34
2023-04-22T09:59:58.909Z,23.24
2023-04-22T10:03:01.529Z,22.94
2023-04-22T10:06:04.501Z,22.87
2023-04-22T10:09:09.432Z,22.73
2023-04-22T10:12:12.226Z,23.10
2023-04-22T10:15:14.555Z,22.42
2023-04-22T10:18:22.772Z,22.14
2023-04-22T10:21:26.800Z,22.06
2023-04-22T10:24:34.801Z,22.52
2023-04-22T10:27:39.030Z,22.41
2023-04-22T10:30:42.119Z,22.47
2023-04-22T10:33:44.360Z,22.74
2023-04-22T10:36:54.766Z,22.80
2023-04-22T10:40:15.860Z,22.98
2023-04-22T10:43:19.954Z,23.13
2023-04-22T10:46:34.929Z,23.11
2023-04-22T10:49:38.088Z,23.07
2023-04-22T10:52:42.662Z,23.21
2023-04-22T10:55:53.152Z,23.45
2023-04-22T10:58:58.402Z,23.55
2023-04-22T11:02:07.815Z,23.21
2023-04-22T11:05:20.966Z,22.40
2023-04-22T11:08:28.607Z,21.82
2023-04-22T11:11:30.796Z,21.53
2023-04-22T11:14:33.970Z,21.20
2023-04-22T11:17:37.823Z,21.02
2023-04-22T11:20:40.385Z,20.94
2023-04-22T11:23:51.731Z,20.77
2023-04-22T11:26:57.035Z,20.68
2023-04-22T11:30:13.265Z,20.46
2023-04-22T11:33:16.561Z,20.38
2023-04-22T11:36:19.441Z,20.26
2023-04-22T11:39:21.913Z,20.14
2023-04-22T11:42:24.037Z,20.32
2023-04-22T11:45:27.890Z,20.29
2023-04-22T11:48:30.220Z,20.26
2023-04-22T11:51:32.713Z,20.16
2023-04-22T11:54:37.165Z,20.39
2023-04-22T11:57:39.778Z,20.92
2023-04-22T12:00:47.906Z,21.25
2023-04-22T12:04:00.057Z,21.62
2023-04-22T12:07:03.853Z,21.87
2023-04-22T12:10:07.805Z,22.16
2023-04-22T12:13:11.173Z,22.36
2023-04-22T12:16:17.581Z,21.94
2023-04-22T12:19:25.973Z,21.81
2023-04-22T12:22:30.162Z,21.99
2023-04-22T12:25:33.968Z,22.16
2023-04-22T12:28:38.033Z,22.25
2023-04-22T12:31:40.271Z,22.32
2023-04-22T12:34:42.720Z,22.50
2023-04-22T12:37:45.102Z,22.50
2023-04-22T12:40:47.535Z,22.57
2023-04-22T12:43:49.797Z,22.44
2023-04-22T12:46:52.449Z,22.26
2023-04-22T12:49:54.722Z,22.26
2023-04-22T12:52:57.151Z,22.13
2023-04-22T12:55:59.449Z,22.03
2023-04-22T12:59:03.243Z,21.73
2023-04-22T13:02:05.984Z,21.59
2023-04-22T13:05:09.416Z,21.41
2023-04-22T13:08:11.722Z,21.27
2023-04-22T13:11:14.171Z,21.15
2023-04-22T13:14:16.353Z,21.14
2023-04-22T13:17:18.850Z,21.03
2023-04-22T13:20:21.310Z,20.89
2023-04-22T13:23:25.814Z,20.78
2023-04-22T13:26:28.079Z,20.72
2023-04-22T13:29:30.580Z,20.66
2023-04-22T13:32:32.796Z,20.69
2023-04-22T13:35:36.224Z,20.56
2023-04-22T13:38:38.551Z,20.67
2023-04-22T13:41:40.989Z,20.59
2023-04-22T13:44:43.133Z,20.50
2023-04-22T13:47:45.781Z,20.49
2023-04-22T13:50:47.997Z,20.42
2023-04-22T13:53:50.676Z,20.42
2023-04-22T13:56:53.874Z,20.38
2023-04-22T13:59:56.261Z,20.33
2023-04-22T14:02:58.749Z,20.36
2023-04-22T14:06:01.618Z,20.31
2023-04-22T14:09:04.431Z,20.13
2023-04-22T14:12:08.040Z,20.09
2023-04-22T14:15:13.280Z,20.13
2023-04-22T14:18:15.769Z,20.01
2023-04-22T14:21:17.892Z,20.07
2023-04-22T14:24:20.708Z,20.08
2023-04-22T14:27:22.898Z,20.05
2023-04-22T14:30:25.383Z,20.03
2023-04-22T14:33:27.981Z,20.09
2023-04-22T14:36:31.218Z,20.10
2023-04-22T14:39:33.397Z,20.08
2023-04-22T14:42:36.192Z,20.18
2023-04-22T14:45:38.938Z,20.18
2023-04-22T14:48:41.533Z,20.11
2023-04-22T14:51:43.689Z,20.01
2023-04-22T14:54:47.603Z,20.08
2023-04-22T14:57:51.299Z,20.10
2023-04-22T15:00:53.743Z,20.07
2023-04-22T15:03:56.044Z,20.12
2023-04-22T15:06:59.664Z,20.14
2023-04-22T15:10:01.925Z,20.14
2023-04-22T15:13:04.379Z,20.12
2023-04-22T15:16:06.772Z,20.09
2023-04-22T15:19:09.294Z,20.06
2023-04-22T15:22:11.555Z,20.07
2023-04-22T15:25:14.373Z,20.05
2023-04-22T15:28:17.725Z,20.06
2023-04-22T15:31:20.752Z,20.01
2023-04-22T15:34:24.178Z,20.04
2023-04-22T15:37:27.039Z,20.02
2023-04-22T15:40:29.191Z,19.88
2023-04-22T15:43:31.683Z,19.83
2023-04-22T15:46:33.948Z,19.78
2023-04-22T15:49:38.305Z,19.70
2023-04-22T15:52:40.871Z,19.58
2023-04-22T15:55:43.275Z,19.51
2023-04-22T15:58:45.812Z,19.47
2023-04-22T16:01:49.781Z,19.44
2023-04-22T16:04:53.562Z,19.37
2023-04-22T16:07:56.366Z,19.29
2023-04-22T16:10:58.860Z,19.27
2023-04-22T16:14:01.111Z,19.30
2023-04-22T16:17:05.809Z,19.33
2023-04-22T16:20:09.472Z,19.39
2023-04-22T16:23:11.888Z,19.36
2023-04-22T16:26:14.063Z,19.32
2023-04-22T16:29:16.576Z,19.27
2023-04-22T16:32:18.787Z,19.33
2023-04-22T16:35:21.402Z,19.34
2023-04-22T16:38:23.565Z,19.33
2023-04-22T16:41:26.140Z,19.38
2023-04-22T16:44:28.379Z,19.43
2023-04-22T16:47:30.835Z,19.49
2023-04-22T16:50:33.114Z,19.53
2023-04-22T16:53:35.835Z,19.54
2023-04-22T16:56:38.010Z,19.55
2023-04-22T16:59:40.687Z,19.52
2023-04-22T17:02:43.176Z,19.47
2023-04-22T17:05:45.762Z,19.43
2023-04-22T17:08:47.929Z,19.38
2023-04-22T17:11:50.541Z,19.29
2023-04-22T17:14:52.682Z,19.20
2023-04-22T17:17:55.161Z,19.11
2023-04-22T17:20:57.347Z,19.03
2023-04-22T17:24:00.450Z,18.94
2023-04-22T17:27:02.906Z,18.85
2023-04-22T17:30:06.086Z,18.71
2023-04-22T17:33:08.453Z,18.59
2023-04-22T17:36:11.312Z,18.44
2023-04-22T17:39:13.813Z,18.34
2023-04-22T17:42:16.792Z,18.25
2023-04-22T17:45:20.125Z,18.12
2023-04-22T17:48:22.525Z,18.03
2023-04-22T17:51:24.691Z,17.89
2023-04-22T17:54:27.173Z,17.73
2023-04-22T17:57:29.293Z,17.60
2023-04-22T18:00:34.362Z,17.46
2023-04-22T18:03:37.103Z,17.34
2023-04-22T18:06:39.370Z,17.23
2023-04-22T18:09:42.204Z,17.14
2023-04-22T18:12:44.677Z,17.09
2023-04-22T18:15:47.145Z,16.92
2023-04-22T18:18:49.333Z,16.71
2023-04-22T18:21:59.611Z,16.69
2023-04-22T18:25:02.438Z,16.57
2023-04-22T18:28:04.894Z,16.56
2023-04-22T18:31:08.028Z,16.50
2023-04-22T18:34:13.235Z,16.45
2023-04-22T18:37:15.714Z,16.41
2023-04-22T18:40:18.264Z,16.27
2023-04-22T18:43:20.470Z,16.14
2023-04-22T18:46:22.878Z,15.98
2023-04-22T18:49:26.010Z,15.91
2023-04-22T18:52:28.489Z,15.83
2023-04-22T18:55:30.786Z,15.75
2023-04-22T18:58:33.210Z,15.61
2023-04-22T19:01:36.505Z,15.51
2023-04-22T19:04:39.519Z,15.40
2023-04-22T19:07:44.450Z,15.28
2023-04-22T19:10:47.588Z,15.31
2023-04-22T19:13:50.389Z,15.22
2023-04-22T19:16:53.900Z,15.18
2023-04-22T19:19:56.098Z,15.20
2023-04-22T19:22:58.545Z,15.12
2023-04-22T19:26:01.317Z,15.05
2023-04-22T19:29:03.820Z,14.93
2023-04-22T19:32:07.175Z,14.86
2023-04-22T19:35:16.029Z,14.87
2023-04-22T19:38:19.254Z,14.73
2023-04-22T19:41:21.750Z,14.73
2023-04-22T19:44:24.743Z,14.67
2023-04-22T19:47:27.318Z,14.59
2023-04-22T19:50:29.712Z,14.51
2023-04-22T19:53:33.012Z,14.49
2023-04-22T19:56:35.730Z,14.34
2023-04-22T19:59:39.975Z,14.33
2023-04-22T20:02:42.917Z,14.26
2023-04-22T20:05:46.284Z,14.21
2023-04-22T20:08:54.339Z,14.16
2023-04-22T20:11:57.086Z,14.06
2023-04-22T20:15:00.005Z,14.06
2023-04-22T20:18:02.710Z,14.01
2023-04-22T20:21:05.443Z,13.94
2023-04-22T20:24:09.249Z,13.91
2023-04-22T20:27:11.754Z,13.92
2023-04-22T20:30:14.534Z,13.87
2023-04-22T20:33:18.027Z,13.81
2023-04-22T20:36:22.285Z,13.83
2023-04-22T20:39:25.392Z,13.71
2023-04-22T20:42:28.854Z,13.71
2023-04-22T20:45:31.183Z,13.66
2023-04-22T20:48:33.753Z,13.59
2023-04-22T20:51:36.027Z,13.57
2023-04-22T20:54:39.902Z,13.57
2023-04-22T20:57:42.217Z,13.54
2023-04-22T21:00:45.764Z,13.44
2023-04-22T21:03:52.537Z,13.33
2023-04-22T21:06:56.064Z,13.23
2023-04-22T21:09:58.409Z,13.21
2023-04-22T21:13:00.967Z,13.09
2023-04-22T21:16:07.182Z,13.10
2023-04-22T21:19:09.904Z,13.04
2023-04-22T21:22:12.699Z,13.05
2023-04-22T21:25:21.388Z,13.01
2023-04-22T21:28:24.075Z,12.95
2023-04-22T21:31:27.515Z,12.86
2023-04-22T21:34:30.336Z,12.93
2023-04-22T21:37:33.362Z,13.01
2023-04-22T21:40:36.204Z,13.09
2023-04-22T21:43:38.619Z,13.15
2023-04-22T21:46:40.850Z,13.12
2023-04-22T21:49:43.424Z,13.02
2023-04-22T21:52:45.788Z,13.08
2023-04-22T21:55:48.224Z,13.05
2023-04-22T21:58:50.481Z,13.04
2023-04-22T22:01:53.076Z,12.98
2023-04-22T22:04:55.726Z,12.97
2023-04-22T22:07:58.072Z,12.90
2023-04-22T22:11:00.536Z,12.76
2023-04-22T22:14:03.086Z,12.57
2023-04-22T22:17:08.391Z,12.48
2023-04-22T22:20:13.285Z,12.31
2023-04-22T22:23:15.807Z,12.16
2023-04-22T22:26:17.933Z,12.17
2023-04-22T22:29:20.425Z,12.13
2023-04-22T22:32:22.577Z,12.05
2023-04-22T22:35:25.013Z,11.92
2023-04-22T22:38:27.293Z,11.82
2023-04-22T22:41:29.940Z,11.61
2023-04-22T22:44:32.133Z,11.55
2023-04-22T22:47:35.423Z,11.41
2023-04-22T22:50:37.836Z,11.39
2023-04-22T22:53:40.907Z,11.34
2023-04-22T22:56:43.053Z,11.34
2023-04-22T22:59:45.515Z,11.22
2023-04-22T23:02:48.066Z,11.21
2023-04-22T23:05:50.632Z,11.01
2023-04-22T23:08:52.757Z,10.91
2023-04-22T23:11:55.486Z,10.91
2023-04-22T23:14:57.602Z,10.80
2023-04-22T23:18:00.336Z,10.80
2023-04-22T23:21:02.685Z,10.76
2023-04-22T23:24:05.872Z,10.68
2023-04-22T23:27:08.247Z,10.66
2023-04-22T23:30:11.108Z,10.68
2023-04-22T23:33:14.638Z,10.68
2023-04-22T23:36:22.328Z,10.51
2023-04-22T23:39:24.544Z,10.55
2023-04-22T23:42:26.974Z,10.54
2023-04-22T23:45:29.186Z,10.51
2023-04-22T23:48:31.700Z,10.52
2023-04-22T23:51:35.064Z,10.39
2023-04-22T23:54:37.932Z,10.28
2023-04-22T23:57:40.559Z,10.26
